Time;durP1;ratioP1;P1;durP2;ratioP2;P2;SDS_P1;SDS_P2;PMS_P1;PMS_P2;Temp;Humidity;BMP_temperature;BMP_pressure;BME280_temperature;BME280_humidity;BME280_pressure;Samples;Min_cycle;Max_cycle;Signal;HPM_P1;HPM_P2
2023/01/19 00:00:09;;;;;;;19.80;17.17;;;3.00;99.90;;;;;;5092466;28;20364;-72
2023/01/19 00:02:35;;;;;;;21.73;16.88;;;3.00;99.90;;;;;;5091900;28;20071;-71
2023/01/19 00:05:02;;;;;;;22.05;17.23;;;3.10;99.90;;;;;;5085530;28;20042;-72
2023/01/19 00:07:29;;;;;;;21.13;16.70;;;3.10;99.90;;;;;;5088671;28;21092;-72
2023/01/19 00:09:55;;;;;;;18.38;15.65;;;3.10;99.90;;;;;;5096088;28;20372;-72
2023/01/19 00:12:21;;;;;;;17.30;15.45;;;3.10;99.90;;;;;;5094407;28;20081;-72
2023/01/19 00:14:46;;;;;;;16.95;13.82;;;3.10;99.90;;;;;;5102621;28;20043;-72
2023/01/19 00:17:12;;;;;;;15.75;14.00;;;3.10;99.90;;;;;;5089885;28;20036;-72
2023/01/19 00:19:37;;;;;;;15.75;14.10;;;3.10;99.90;;;;;;5089885;28;20048;-72
2023/01/19 00:22:04;;;;;;;17.90;14.25;;;3.10;99.90;;;;;;5091115;28;20048;-72
2023/01/19 00:24:33;;;;;;;15.23;13.63;;;3.10;99.90;;;;;;5089586;28;20071;-72
2023/01/19 00:27:02;;;;;;;15.02;13.45;;;3.10;99.90;;;;;;5090083;28;20426;-72
2023/01/19 00:29:32;;;;;;;17.65;13.80;;;3.10;99.90;;;;;;5095391;28;20147;-72
2023/01/19 00:32:02;;;;;;;15.55;13.88;;;3.00;99.90;;;;;;5090834;28;20048;-72
2023/01/19 00:34:35;;;;;;;15.00;13.48;;;3.00;99.90;;;;;;5087365;28;20364;-72
2023/01/19 00:37:10;;;;;;;14.50;12.98;;;3.00;99.90;;;;;;5088404;28;20123;-72
2023/01/19 00:39:36;;;;;;;13.73;12.25;;;3.00;99.90;;;;;;5092014;28;20232;-72
2023/01/19 00:44:46;;;;;;;13.30;11.90;;;3.00;99.90;;;;;;5093878;28;20044;-71
2023/01/19 00:47:12;;;;;;;10.77;9.68;;;3.00;99.90;;;;;;5091577;28;20097;-72
2023/01/19 00:49:38;;;;;;;11.27;10.18;;;3.00;99.90;;;;;;5091440;28;20047;-72
2023/01/19 00:52:05;;;;;;;12.98;11.40;;;3.00;99.90;;;;;;5096895;28;20051;-72
2023/01/19 00:54:30;;;;;;;13.70;12.30;;;3.00;99.90;;;;;;5112476;28;20115;-71
2023/01/19 00:56:56;;;;;;;13.75;12.35;;;3.00;99.90;;;;;;5110289;28;20478;-72
2023/01/19 00:59:22;;;;;;;13.73;12.43;;;2.90;99.90;;;;;;5111473;28;20031;-72
2023/01/19 01:01:47;;;;;;;15.85;14.15;;;2.90;99.90;;;;;;5104951;28;20801;-72
2023/01/19 01:04:13;;;;;;;15.38;13.80;;;2.90;99.90;;;;;;5090094;28;20411;-71
2023/01/19 01:06:39;;;;;;;15.55;13.95;;;2.90;99.90;;;;;;5098963;28;20368;-72
2023/01/19 01:09:10;;;;;;;16.40;14.70;;;2.90;99.90;;;;;;5110566;28;20073;-72
2023/01/19 01:11:40;;;;;;;17.55;15.88;;;2.90;99.90;;;;;;5094325;28;20163;-72
2023/01/19 01:14:06;;;;;;;17.67;15.98;;;2.90;99.90;;;;;;5111368;28;20070;-72
2023/01/19 01:16:32;;;;;;;18.52;16.73;;;2.80;99.90;;;;;;5091463;28;20063;-72
2023/01/19 01:18:58;;;;;;;18.65;16.75;;;2.80;99.90;;;;;;5093349;28;20051;-72
2023/01/19 01:21:23;;;;;;;19.42;17.52;;;2.80;99.90;;;;;;5100272;28;20036;-72
2023/01/19 01:23:49;;;;;;;19.17;17.17;;;2.80;99.90;;;;;;5090550;28;20392;-72
2023/01/19 01:26:15;;;;;;;19.33;17.33;;;2.70;99.90;;;;;;5090251;28;20040;-72
2023/01/19 01:28:40;;;;;;;19.98;18.08;;;2.70;99.90;;;;;;5089982;28;20064;-72
2023/01/19 01:31:06;;;;;;;21.02;18.92;;;2.70;99.90;;;;;;5088291;28;20056;-72
2023/01/19 01:33:32;;;;;;;20.98;18.88;;;2.70;99.90;;;;;;5097812;28;20387;-72
2023/01/19 01:35:57;;;;;;;20.95;18.85;;;2.70;99.90;;;;;;5101980;28;20380;-72
2023/01/19 01:38:23;;;;;;;20.33;18.40;;;2.70;99.90;;;;;;5092246;28;20066;-72
2023/01/19 01:40:49;;;;;;;22.65;20.02;;;2.70;99.90;;;;;;5100045;28;20096;-72
2023/01/19 01:43:17;;;;;;;20.80;18.65;;;2.70;99.90;;;;;;5090892;28;20513;-72
2023/01/19 01:45:43;;;;;;;22.30;19.90;;;2.70;99.90;;;;;;5089419;28;20105;-72
2023/01/19 01:48:11;;;;;;;20.50;18.48;;;2.60;99.90;;;;;;5088946;28;20036;-72
2023/01/19 01:53:38;;;;;;;21.63;19.42;;;2.60;99.90;;;;;;5087362;28;20043;-72
2023/01/19 01:56:08;;;;;;;21.67;19.40;;;2.60;99.90;;;;;;5091788;28;20047;-72
2023/01/19 01:58:35;;;;;;;20.90;18.83;;;2.70;99.90;;;;;;5108107;28;20434;-72
2023/01/19 02:03:45;;;;;;;21.45;19.25;;;2.60;99.90;;;;;;5088876;28;20059;-72
2023/01/19 02:06:12;;;;;;;21.27;19.13;;;2.60;99.90;;;;;;5089209;28;20198;-72
2023/01/19 02:14:21;;;;;;;21.35;19.13;;;2.70;99.90;;;;;;5099859;28;20044;-71
2023/01/19 02:16:47;;;;;;;21.95;19.55;;;2.70;99.90;;;;;;5094454;28;20054;-72
2023/01/19 02:19:18;;;;;;;22.52;19.88;;;2.70;99.90;;;;;;5086953;28;20083;-72
2023/01/19 02:22:00;;;;;;;22.52;19.95;;;2.70;99.90;;;;;;5106032;28;20105;-72
2023/01/19 02:24:28;;;;;;;21.95;19.63;;;2.70;99.90;;;;;;5093636;28;20048;-72
2023/01/19 02:26:55;;;;;;;22.08;19.77;;;2.70;99.90;;;;;;5097607;28;20441;-72
2023/01/19 02:29:23;;;;;;;22.17;19.83;;;2.70;99.90;;;;;;5094279;28;20477;-72
2023/01/19 02:31:49;;;;;;;23.23;20.83;;;2.70;99.90;;;;;;5097637;28;20075;-71
2023/01/19 02:34:18;;;;;;;22.10;19.75;;;2.70;99.90;;;;;;5104667;28;20039;-71
2023/01/19 02:36:50;;;;;;;21.15;18.90;;;2.70;99.90;;;;;;5096186;27;20101;-72
2023/01/19 02:39:20;;;;;;;21.10;18.80;;;2.70;99.90;;;;;;5096445;27;20471;-71
2023/01/19 02:41:54;;;;;;;22.48;20.17;;;2.80;99.90;;;;;;5108868;28;20085;-72
2023/01/19 02:44:21;;;;;;;21.63;19.33;;;2.80;99.90;;;;;;5111054;27;20085;-72
2023/01/19 02:46:47;;;;;;;23.48;20.98;;;2.80;99.90;;;;;;5103181;27;20039;-72
2023/01/19 02:49:13;;;;;;;25.48;22.58;;;2.80;99.90;;;;;;5100758;28;20351;-72
2023/01/19 02:51:42;;;;;;;24.98;22.27;;;2.80;99.90;;;;;;5105643;28;20097;-72
2023/01/19 02:54:26;;;;;;;24.00;21.40;;;2.80;99.90;;;;;;5116300;27;20054;-72
2023/01/19 02:57:07;;;;;;;25.83;23.05;;;2.80;99.90;;;;;;5114810;28;20051;-72
2023/01/19 03:00:10;;;;;;;26.67;23.88;;;2.90;99.90;;;;;;5074767;28;20131;-72
2023/01/19 03:02:42;;;;;;;26.48;22.92;;;2.90;99.90;;;;;;5059714;27;20060;-72
2023/01/19 03:05:30;;;;;;;27.75;24.33;;;2.90;99.90;;;;;;5093843;28;20057;-72
2023/01/19 03:08:13;;;;;;;28.42;24.13;;;2.90;99.90;;;;;;5112853;28;20535;-72
2023/01/19 03:10:42;;;;;;;27.45;24.27;;;2.90;99.90;;;;;;5117688;28;20075;-72
2023/01/19 03:13:07;;;;;;;27.15;24.02;;;2.90;99.90;;;;;;5113141;28;20938;-72
2023/01/19 03:15:50;;;;;;;27.08;24.13;;;2.90;99.90;;;;;;5103877;28;20040;-72
2023/01/19 03:18:23;;;;;;;28.92;25.58;;;2.90;99.90;;;;;;5098957;27;20048;-72
2023/01/19 03:20:52;;;;;;;27.45;23.83;;;2.90;99.90;;;;;;5095367;28;20091;-72
2023/01/19 03:23:20;;;;;;;26.35;23.45;;;2.90;99.90;;;;;;5094231;28;20043;-72
2023/01/19 03:25:48;;;;;;;26.60;23.80;;;2.90;99.90;;;;;;5093173;28;20048;-72
2023/01/19 03:28:16;;;;;;;28.75;23.67;;;2.90;99.90;;;;;;5093361;28;20036;-72
2023/01/19 03:30:49;;;;;;;25.63;22.83;;;2.90;99.90;;;;;;5101677;28;20039;-72
2023/01/19 03:33:24;;;;;;;26.85;23.65;;;2.90;99.90;;;;;;5091585;28;20052;-72
2023/01/19 03:35:56;;;;;;;26.02;22.45;;;3.00;99.90;;;;;;5103185;28;20036;-72
2023/01/19 03:38:25;;;;;;;26.63;22.55;;;2.90;99.90;;;;;;5086725;28;20059;-72
2023/01/19 03:40:57;;;;;;;24.25;21.65;;;3.00;99.90;;;;;;5083560;28;20382;-72
2023/01/19 03:43:25;;;;;;;25.35;21.80;;;3.00;99.90;;;;;;5098134;28;20044;-72
2023/01/19 03:45:52;;;;;;;24.63;20.90;;;2.90;99.90;;;;;;5092188;28;20032;-72
2023/01/19 03:48:20;;;;;;;24.00;20.00;;;3.00;99.90;;;;;;5091308;28;20044;-72
2023/01/19 03:50:46;;;;;;;22.90;20.50;;;3.00;99.90;;;;;;5091168;28;20487;-72
2023/01/19 03:53:14;;;;;;;22.35;19.83;;;3.00;99.90;;;;;;5089916;28;20036;-72
2023/01/19 03:55:43;;;;;;;22.63;19.92;;;3.00;99.90;;;;;;5089358;28;20151;-72
2023/01/19 03:58:09;;;;;;;21.67;19.38;;;3.00;99.90;;;;;;5106029;28;20391;-72
2023/01/19 04:00:36;;;;;;;21.83;19.52;;;2.90;99.90;;;;;;5092383;28;20031;-72
2023/01/19 04:03:03;;;;;;;21.73;19.42;;;2.90;99.90;;;;;;5091745;28;20048;-72
2023/01/19 04:05:29;;;;;;;21.40;19.20;;;3.00;99.90;;;;;;5088355;28;20398;-72
2023/01/19 04:07:54;;;;;;;20.65;18.45;;;2.90;99.90;;;;;;5089603;28;20038;-72
2023/01/19 04:10:20;;;;;;;20.55;18.17;;;3.00;99.90;;;;;;5091700;28;20444;-72
2023/01/19 04:12:47;;;;;;;21.42;19.15;;;3.00;99.90;;;;;;5092531;28;20040;-71
2023/01/19 04:15:12;;;;;;;20.70;18.50;;;3.00;99.90;;;;;;5095987;28;20036;-72
2023/01/19 04:17:38;;;;;;;20.42;18.27;;;2.90;99.90;;;;;;5093695;28;20087;-72
2023/01/19 04:20:05;;;;;;;20.15;17.92;;;2.90;99.90;;;;;;5091554;28;20392;-72
2023/01/19 04:22:31;;;;;;;19.95;17.83;;;2.90;99.90;;;;;;5089570;28;20063;-71
2023/01/19 04:24:57;;;;;;;18.98;17.00;;;2.90;99.90;;;;;;5099625;28;20115;-72
2023/01/19 04:27:24;;;;;;;18.98;16.52;;;2.90;99.90;;;;;;5107592;28;20036;-72
2023/01/19 04:29:50;;;;;;;20.05;16.65;;;2.90;99.90;;;;;;5091095;28;20075;-72
2023/01/19 04:32:16;;;;;;;17.63;15.88;;;2.90;99.90;;;;;;5087464;28;20072;-71
2023/01/19 04:34:42;;;;;;;16.38;14.60;;;2.90;99.90;;;;;;5095201;28;20127;-72
2023/01/19 04:37:08;;;;;;;14.95;13.38;;;2.90;99.90;;;;;;5090386;28;20075;-72
2023/01/19 04:39:34;;;;;;;15.27;13.68;;;2.90;99.90;;;;;;5100107;28;20044;-72
2023/01/19 04:42:00;;;;;;;14.85;13.25;;;2.80;99.90;;;;;;5092599;28;20110;-72
2023/01/19 04:44:27;;;;;;;15.07;13.50;;;2.90;99.90;;;;;;5087844;28;20048;-72
2023/01/19 04:46:53;;;;;;;14.55;13.05;;;2.80;99.90;;;;;;5091964;28;20037;-72
2023/01/19 04:49:19;;;;;;;13.23;11.90;;;2.90;99.90;;;;;;5090677;28;20130;-72
2023/01/19 04:51:44;;;;;;;13.07;11.68;;;2.80;99.90;;;;;;5089656;28;20132;-72
2023/01/19 04:54:10;;;;;;;12.45;11.02;;;2.90;99.90;;;;;;5098276;28;20096;-72
2023/01/19 04:56:36;;;;;;;12.68;11.00;;;2.80;99.90;;;;;;5106057;28;20054;-72
2023/01/19 04:59:02;;;;;;;12.30;11.07;;;2.80;99.90;;;;;;5109728;28;20035;-72
2023/01/19 05:01:27;;;;;;;11.75;10.52;;;2.80;99.90;;;;;;5112229;28;20071;-72
2023/01/19 05:03:53;;;;;;;12.82;11.50;;;2.80;99.90;;;;;;5096932;28;20048;-72
2023/01/19 05:06:19;;;;;;;12.93;11.52;;;2.80;99.90;;;;;;5109103;27;20032;-72
2023/01/19 05:08:44;;;;;;;14.35;12.85;;;2.80;99.90;;;;;;5111443;28;20032;-72
2023/01/19 05:11:10;;;;;;;12.63;11.32;;;2.80;99.90;;;;;;5109227;28;20546;-72
2023/01/19 05:13:36;;;;;;;14.25;12.73;;;2.80;99.90;;;;;;5091980;28;20105;-71
2023/01/19 05:16:02;;;;;;;13.55;12.15;;;2.80;99.90;;;;;;5093030;28;20031;-73
2023/01/19 05:18:28;;;;;;;14.38;12.88;;;2.80;99.90;;;;;;5104047;28;20818;-72
2023/01/19 05:20:54;;;;;;;14.18;12.68;;;2.80;99.90;;;;;;5097546;28;20098;-72
2023/01/19 05:23:20;;;;;;;13.30;11.90;;;2.80;99.90;;;;;;5101835;28;20035;-72
2023/01/19 05:25:46;;;;;;;13.27;11.45;;;2.70;99.90;;;;;;5096669;28;20407;-72
2023/01/19 05:28:12;;;;;;;13.60;12.20;;;2.70;99.90;;;;;;5102616;28;20135;-72
2023/01/19 05:30:37;;;;;;;15.00;12.10;;;2.70;99.90;;;;;;5087865;28;20403;-72
2023/01/19 05:33:04;;;;;;;14.05;12.40;;;2.70;99.90;;;;;;5103614;28;20047;-72
2023/01/19 05:35:29;;;;;;;14.32;12.20;;;2.70;99.90;;;;;;5102844;28;20051;-72
2023/01/19 05:37:55;;;;;;;13.95;12.52;;;2.70;99.90;;;;;;5110841;28;20364;-72
2023/01/19 05:40:20;;;;;;;14.70;12.30;;;2.70;99.90;;;;;;5093316;28;20066;-72
2023/01/19 05:42:46;;;;;;;14.35;12.45;;;2.70;99.90;;;;;;5087380;28;20144;-72
2023/01/19 05:45:12;;;;;;;15.32;12.70;;;2.80;99.90;;;;;;5096743;28;20481;-72
2023/01/19 05:47:38;;;;;;;14.38;12.45;;;2.80;99.90;;;;;;5092576;28;20040;-72
2023/01/19 05:50:05;;;;;;;14.37;12.37;;;2.80;99.90;;;;;;5090066;28;20083;-72
2023/01/19 05:52:30;;;;;;;18.95;12.93;;;2.80;99.90;;;;;;5097959;28;20044;-71
2023/01/19 05:54:56;;;;;;;16.45;12.70;;;2.80;99.90;;;;;;5097195;28;20100;-72
2023/01/19 05:57:22;;;;;;;17.25;13.02;;;2.90;99.90;;;;;;5089015;28;20109;-72
2023/01/19 05:59:48;;;;;;;17.33;13.43;;;2.80;99.90;;;;;;5089269;28;20105;-72
2023/01/19 06:02:14;;;;;;;16.52;12.98;;;2.80;99.90;;;;;;5087448;28;20422;-72
2023/01/19 06:04:39;;;;;;;17.85;13.75;;;2.80;99.90;;;;;;5090640;28;20406;-72
2023/01/19 06:07:05;;;;;;;16.73;12.73;;;2.90;99.90;;;;;;5088265;28;20040;-71
2023/01/19 06:09:32;;;;;;;18.88;11.93;;;2.90;99.90;;;;;;5089473;28;20543;-72
2023/01/19 06:11:58;;;;;;;16.77;11.75;;;2.90;99.90;;;;;;5099140;28;20142;-71
2023/01/19 06:14:25;;;;;;;15.02;11.13;;;2.90;99.90;;;;;;5088302;28;20119;-72
2023/01/19 06:16:51;;;;;;;16.73;11.13;;;2.90;99.90;;;;;;5089150;28;20132;-72
2023/01/19 06:19:17;;;;;;;18.52;10.82;;;3.00;99.90;;;;;;5090106;28;20123;-72
2023/01/19 06:21:48;;;;;;;18.20;10.02;;;3.00;99.90;;;;;;5087432;28;20059;-72
2023/01/19 06:24:14;;;;;;;17.80;10.35;;;3.10;99.90;;;;;;5099411;28;20062;-71
2023/01/19 06:26:42;;;;;;;18.08;9.82;;;3.10;99.90;;;;;;5090597;28;20028;-71
2023/01/19 06:29:10;;;;;;;19.17;9.75;;;3.10;99.90;;;;;;5090073;28;21031;-72
2023/01/19 06:31:35;;;;;;;17.90;9.32;;;3.20;99.90;;;;;;5091380;28;20044;-72
2023/01/19 06:34:01;;;;;;;16.20;8.73;;;3.10;99.90;;;;;;5105927;28;20039;-72
2023/01/19 06:36:26;;;;;;;15.25;7.75;;;3.20;99.90;;;;;;5089851;28;20044;-72
2023/01/19 06:38:52;;;;;;;13.55;6.88;;;3.20;99.90;;;;;;5087207;28;20399;-72
2023/01/19 06:41:18;;;;;;;13.35;7.15;;;3.20;99.90;;;;;;5086486;28;20147;-72
2023/01/19 06:43:43;;;;;;;14.75;6.80;;;3.20;99.90;;;;;;5089644;28;20040;-72
2023/01/19 06:46:09;;;;;;;13.70;7.47;;;3.20;99.90;;;;;;5092496;28;20054;-72
2023/01/19 06:48:34;;;;;;;11.10;5.20;;;3.20;99.90;;;;;;5098189;28;20418;-73
2023/01/19 06:51:00;;;;;;;11.85;5.60;;;3.20;99.90;;;;;;5088413;28;20044;-73
2023/01/19 06:53:27;;;;;;;16.10;5.30;;;3.20;99.90;;;;;;5089725;28;20035;-72
2023/01/19 06:56:01;;;;;;;12.80;4.30;;;3.20;99.90;;;;;;5097842;28;20044;-72
2023/01/19 06:58:30;;;;;;;9.73;4.75;;;3.20;99.90;;;;;;5088254;28;20087;-72
2023/01/19 07:01:01;;;;;;;12.63;4.05;;;3.20;99.90;;;;;;5096112;28;20039;-72
2023/01/19 07:03:27;;;;;;;9.80;3.88;;;3.10;99.90;;;;;;5090766;28;20051;-72
2023/01/19 07:05:52;;;;;;;7.95;3.40;;;3.10;99.90;;;;;;5077614;28;20039;-72
2023/01/19 07:08:18;;;;;;;14.05;3.50;;;3.10;99.90;;;;;;5098117;28;20035;-72
2023/01/19 07:10:44;;;;;;;9.07;3.22;;;3.10;99.90;;;;;;5109556;28;20047;-73
2023/01/19 07:13:10;;;;;;;12.50;3.13;;;3.10;99.90;;;;;;5095753;28;20174;-72
2023/01/19 07:15:36;;;;;;;11.80;3.13;;;3.10;99.90;;;;;;5092757;28;20472;-72
2023/01/19 07:18:06;;;;;;;9.10;2.43;;;3.10;99.90;;;;;;5091468;28;20046;-73
2023/01/19 07:20:33;;;;;;;9.68;2.20;;;3.20;99.90;;;;;;5092932;28;20419;-72
2023/01/19 07:22:59;;;;;;;7.03;1.80;;;3.10;99.90;;;;;;5089522;28;20123;-72
2023/01/19 07:25:25;;;;;;;7.32;1.70;;;3.10;99.90;;;;;;5089926;28;20502;-72
2023/01/19 07:27:55;;;;;;;8.70;1.77;;;3.10;99.90;;;;;;5092090;28;20419;-71
2023/01/19 07:30:21;;;;;;;10.32;2.08;;;3.10;99.90;;;;;;5083481;28;20052;-72
2023/01/19 07:32:46;;;;;;;6.78;2.10;;;3.20;99.90;;;;;;5094690;28;20135;-72
2023/01/19 07:35:13;;;;;;;11.35;1.98;;;3.20;99.90;;;;;;5099205;28;20196;-71
2023/01/19 07:37:38;;;;;;;12.27;1.70;;;3.20;99.90;;;;;;5099351;28;20040;-72
2023/01/19 07:40:04;;;;;;;9.30;1.45;;;3.20;99.90;;;;;;5090917;28;20369;-72
2023/01/19 07:42:30;;;;;;;5.40;1.48;;;3.20;99.90;;;;;;5091630;28;20072;-72
2023/01/19 07:44:57;;;;;;;7.60;1.77;;;3.20;99.90;;;;;;5086802;28;20064;-72
2023/01/19 07:47:22;;;;;;;6.95;1.20;;;3.20;99.90;;;;;;5089001;28;20043;-72
2023/01/19 07:49:48;;;;;;;6.70;1.40;;;3.20;99.90;;;;;;5091868;28;20090;-72
2023/01/19 07:52:14;;;;;;;8.85;1.60;;;3.20;99.90;;;;;;5098497;28;20046;-72
2023/01/19 07:54:40;;;;;;;7.55;1.63;;;3.20;99.90;;;;;;5090263;28;20044;-72
2023/01/19 07:57:06;;;;;;;11.45;1.45;;;3.30;99.90;;;;;;5083045;28;20067;-72
2023/01/19 07:59:32;;;;;;;9.57;1.50;;;3.20;99.90;;;;;;5091710;28;20487;-72
2023/01/19 08:01:58;;;;;;;12.20;1.40;;;3.30;99.90;;;;;;5087036;28;20050;-72
2023/01/19 08:04:25;;;;;;;9.27;1.45;;;3.40;99.90;;;;;;5093928;28;20040;-72
2023/01/19 08:06:51;;;;;;;11.10;1.58;;;3.40;99.90;;;;;;5091132;28;20103;-72
2023/01/19 08:09:17;;;;;;;14.38;1.73;;;3.40;99.90;;;;;;5092745;28;20573;-72
2023/01/19 08:11:42;;;;;;;11.13;1.40;;;3.50;99.90;;;;;;5089888;28;20048;-72
2023/01/19 08:14:09;;;;;;;8.73;1.70;;;3.50;99.90;;;;;;5085983;28;20482;-72
2023/01/19 08:16:35;;;;;;;11.27;1.65;;;3.50;99.90;;;;;;5088945;28;20118;-72
2023/01/19 08:19:03;;;;;;;10.30;2.10;;;3.50;99.90;;;;;;5096750;28;20487;-72
2023/01/19 08:21:29;;;;;;;14.95;2.00;;;3.50;99.90;;;;;;5092522;28;20040;-72
2023/01/19 08:23:56;;;;;;;11.63;1.63;;;3.50;99.90;;;;;;5094292;28;20100;-72
2023/01/19 08:26:26;;;;;;;11.32;1.60;;;3.50;99.90;;;;;;5087898;28;20123;-72
2023/01/19 08:28:52;;;;;;;13.55;3.00;;;3.50;99.90;;;;;;5101090;28;20075;-72
2023/01/19 08:31:18;;;;;;;10.35;1.95;;;3.50;99.90;;;;;;5090330;28;20813;-71
2023/01/19 08:33:46;;;;;;;17.90;2.35;;;3.50;99.90;;;;;;5087694;28;20047;-73
2023/01/19 08:36:12;;;;;;;11.15;1.77;;;3.60;99.90;;;;;;5095494;28;20097;-75
2023/01/19 08:38:42;;;;;;;12.13;1.80;;;3.50;99.90;;;;;;5091534;28;20040;-73
2023/01/19 08:41:08;;;;;;;11.85;2.55;;;3.60;99.90;;;;;;5112262;28;20051;-74
2023/01/19 08:43:34;;;;;;;11.48;2.15;;;3.60;99.90;;;;;;5091927;28;20605;-74
2023/01/19 08:45:59;;;;;;;13.70;2.45;;;3.60;99.90;;;;;;5092956;28;20047;-78
2023/01/19 08:48:25;;;;;;;12.45;2.80;;;3.60;99.90;;;;;;5088389;28;20043;-75
2023/01/19 08:50:51;;;;;;;10.88;2.10;;;3.60;99.90;;;;;;5102120;28;20044;-74
2023/01/19 08:53:19;;;;;;;13.15;2.15;;;3.50;99.90;;;;;;5099918;28;20131;-73
2023/01/19 08:55:45;;;;;;;14.70;2.47;;;3.60;99.90;;;;;;5111435;28;20051;-73
2023/01/19 08:58:11;;;;;;;11.55;2.50;;;3.50;99.90;;;;;;5099730;28;20055;-74
2023/01/19 09:00:38;;;;;;;16.80;2.65;;;3.50;99.90;;;;;;5107883;28;20493;-75
2023/01/19 09:03:10;;;;;;;18.55;2.58;;;3.50;99.90;;;;;;5090835;28;20494;-73
2023/01/19 09:05:37;;;;;;;17.25;2.83;;;3.50;99.90;;;;;;5095526;28;20039;-74
2023/01/19 09:08:04;;;;;;;;;;;3.60;99.90;;;;;;5112441;28;20052;-73
2023/01/19 09:10:34;;;;;;;15.63;2.13;;;3.50;99.90;;;;;;5111447;28;20294;-73
2023/01/19 09:13:03;;;;;;;19.58;2.42;;;3.50;99.90;;;;;;5112503;28;20040;-72
2023/01/19 09:15:31;;;;;;;15.52;2.55;;;3.60;99.90;;;;;;5098782;28;20119;-73
2023/01/19 09:17:56;;;;;;;18.20;2.80;;;3.70;99.90;;;;;;5089818;28;20048;-73
2023/01/19 09:20:22;;;;;;;16.15;2.08;;;3.70;99.90;;;;;;5103894;28;20052;-75
2023/01/19 09:22:48;;;;;;;17.73;2.40;;;3.70;99.90;;;;;;5111231;28;20047;-72
2023/01/19 09:25:13;;;;;;;14.75;2.63;;;3.80;99.90;;;;;;5095671;28;20036;-75
2023/01/19 09:27:39;;;;;;;15.05;2.88;;;3.80;99.90;;;;;;5083507;28;20098;-73
2023/01/19 09:30:05;;;;;;;16.70;2.58;;;3.90;99.90;;;;;;5086280;28;20043;-73
2023/01/19 09:32:31;;;;;;;13.30;2.08;;;3.90;99.90;;;;;;5103891;28;20365;-75
2023/01/19 09:34:57;;;;;;;17.85;3.25;;;4.00;99.90;;;;;;5095139;28;20062;-74
2023/01/19 09:37:22;;;;;;;12.13;2.20;;;4.10;99.90;;;;;;5109242;28;20066;-72
2023/01/19 09:39:48;;;;;;;14.73;2.08;;;4.10;99.90;;;;;;5108682;28;20177;-71
2023/01/19 09:42:17;;;;;;;13.50;2.60;;;4.20;99.90;;;;;;5105833;28;20482;-74
2023/01/19 09:44:45;;;;;;;11.35;2.47;;;4.20;99.90;;;;;;5091364;28;20399;-74
2023/01/19 09:47:13;;;;;;;8.90;2.38;;;4.20;99.90;;;;;;5088827;28;20036;-75
2023/01/19 09:49:51;;;;;;;14.10;2.17;;;4.20;99.90;;;;;;5090830;28;20056;-80
2023/01/19 09:52:17;;;;;;;12.77;2.30;;;4.30;99.90;;;;;;5076476;28;20051;-76
2023/01/19 09:54:51;;;;;;;11.02;2.70;;;4.20;99.90;;;;;;5095344;28;20390;-76
2023/01/19 09:57:17;;;;;;;17.50;2.20;;;4.20;99.90;;;;;;5111243;28;20055;-76
2023/01/19 09:59:46;;;;;;;17.58;2.47;;;4.20;99.90;;;;;;5102755;28;20032;-73
2023/01/19 10:02:27;;;;;;;16.92;2.95;;;4.20;99.90;;;;;;5098293;28;20059;-78
2023/01/19 10:05:04;;;;;;;16.90;2.42;;;4.30;99.90;;;;;;5084236;28;20056;-76
2023/01/19 10:07:29;;;;;;;;;;;4.30;99.90;;;;;;5089733;28;20044;-76
2023/01/19 10:10:17;;;;;;;9.75;2.03;;;4.30;99.90;;;;;;5089994;28;20393;-76
2023/01/19 10:12:49;;;;;;;22.45;2.85;;;4.30;99.90;;;;;;5089644;28;20075;-71
2023/01/19 10:15:28;;;;;;;15.43;2.33;;;4.20;99.90;;;;;;5093429;28;20104;-71
2023/01/19 10:18:06;;;;;;;14.80;1.92;;;4.20;99.90;;;;;;5093048;28;20051;-73
2023/01/19 10:20:41;;;;;;;12.02;2.35;;;4.20;99.90;;;;;;5085552;28;20395;-71
2023/01/19 10:23:39;;;;;;;12.65;2.67;;;4.20;99.90;;;;;;5087822;28;20170;-71
2023/01/19 10:26:13;;;;;;;16.05;2.67;;;4.20;99.90;;;;;;5073627;28;20052;-71
2023/01/19 10:28:39;;;;;;;13.43;2.85;;;4.30;99.90;;;;;;5087885;28;20067;-72
2023/01/19 10:31:08;;;;;;;19.48;2.67;;;4.30;99.90;;;;;;5089188;28;20087;-71
2023/01/19 10:33:34;;;;;;;19.35;3.10;;;4.40;99.90;;;;;;5092240;28;20044;-76
2023/01/19 10:36:04;;;;;;;14.35;2.10;;;4.40;99.90;;;;;;5089708;28;20055;-76
2023/01/19 10:38:32;;;;;;;13.50;2.33;;;4.50;99.90;;;;;;5093383;28;20114;-76
2023/01/19 10:41:21;;;;;;;17.60;2.10;;;4.60;99.90;;;;;;5091739;28;20093;-75
2023/01/19 10:43:47;;;;;;;14.85;2.08;;;4.70;99.90;;;;;;5083865;28;20070;-77
2023/01/19 10:46:33;;;;;;;14.48;2.10;;;4.70;99.90;;;;;;5098225;28;20084;-75
2023/01/19 10:48:59;;;;;;;14.15;2.65;;;4.80;99.90;;;;;;5100729;28;20054;-78
2023/01/19 10:51:25;;;;;;;13.98;2.20;;;4.80;99.90;;;;;;5100434;28;20032;-77
2023/01/19 10:53:57;;;;;;;10.27;2.15;;;4.80;99.90;;;;;;5097431;28;20367;-76
2023/01/19 10:56:24;;;;;;;13.80;2.22;;;4.90;99.90;;;;;;5086750;28;20047;-79
2023/01/19 10:58:50;;;;;;;14.60;2.20;;;5.00;99.90;;;;;;5101562;28;20043;-78
2023/01/19 11:01:23;;;;;;;13.07;2.30;;;5.00;99.90;;;;;;5093414;28;20059;-75
2023/01/19 11:03:49;;;;;;;12.30;2.15;;;5.20;99.90;;;;;;5097326;28;20036;-75
2023/01/19 11:06:14;;;;;;;13.23;2.17;;;5.20;99.90;;;;;;5098931;28;20052;-78
2023/01/19 11:08:42;;;;;;;14.65;1.77;;;5.30;99.90;;;;;;5096617;28;20085;-72
2023/01/19 11:11:08;;;;;;;17.25;2.40;;;5.30;99.90;;;;;;5101250;28;20058;-74
2023/01/19 11:13:35;;;;;;;13.75;2.38;;;5.40;99.90;;;;;;5099735;28;20079;-74
2023/01/19 11:16:06;;;;;;;11.60;1.90;;;5.40;99.90;;;;;;5097128;28;20035;-73
2023/01/19 11:18:35;;;;;;;11.70;1.73;;;5.50;99.90;;;;;;5086891;28;20086;-72
2023/01/19 11:21:11;;;;;;;19.88;3.45;;;5.50;99.90;;;;;;5090212;28;20441;-74
2023/01/19 11:23:45;;;;;;;15.88;2.28;;;5.50;99.90;;;;;;5083623;28;20044;-73
2023/01/19 11:26:27;;;;;;;16.05;2.40;;;5.50;99.90;;;;;;5090142;28;20513;-73
2023/01/19 11:28:54;;;;;;;13.30;2.55;;;5.60;99.90;;;;;;5080715;28;20054;-73
2023/01/19 11:31:26;;;;;;;14.93;2.35;;;5.60;99.90;;;;;;5095374;28;20044;-73
2023/01/19 11:33:57;;;;;;;8.93;2.00;;;5.60;99.90;;;;;;5087589;28;20039;-75
2023/01/19 11:36:31;;;;;;;16.77;2.63;;;5.60;99.90;;;;;;5091501;28;20039;-74
2023/01/19 11:39:22;;;;;;;10.98;1.92;;;5.60;99.90;;;;;;5078746;28;20087;-75
2023/01/19 11:41:55;;;;;;;11.68;1.95;;;5.70;99.90;;;;;;5083105;28;20048;-74
2023/01/19 11:44:27;;;;;;;9.57;1.90;;;5.70;99.90;;;;;;5083685;28;20059;-71
2023/01/19 11:46:57;;;;;;;15.15;2.30;;;5.70;99.90;;;;;;5089377;28;20079;-72
2023/01/19 11:49:45;;;;;;;11.40;2.25;;;5.80;99.90;;;;;;5090548;28;20031;-72
2023/01/19 11:52:29;;;;;;;11.98;1.92;;;5.80;99.90;;;;;;5062088;28;20048;-74
2023/01/19 11:55:33;;;;;;;11.18;2.10;;;5.80;99.90;;;;;;5091237;28;20129;-75
2023/01/19 11:57:58;;;;;;;10.25;1.73;;;5.80;99.90;;;;;;5076531;28;20418;-75
2023/01/19 12:00:34;;;;;;;12.38;1.92;;;5.90;99.90;;;;;;5080816;28;20059;-75
2023/01/19 12:03:11;;;;;;;13.25;2.63;;;5.90;99.90;;;;;;5098703;28;20087;-74
2023/01/19 12:05:42;;;;;;;9.40;2.08;;;6.00;99.90;;;;;;5095675;28;20052;-75
2023/01/19 12:08:15;;;;;;;12.00;2.00;;;6.00;99.90;;;;;;5077679;28;20160;-74
2023/01/19 12:10:44;;;;;;;11.35;2.20;;;6.00;99.90;;;;;;5092704;28;20131;-76
2023/01/19 12:13:20;;;;;;;13.48;2.25;;;6.10;99.90;;;;;;5092311;28;20048;-75
2023/01/19 12:15:48;;;;;;;11.68;1.92;;;6.10;99.90;;;;;;5089257;28;20048;-74
2023/01/19 12:18:23;;;;;;;15.57;2.00;;;6.10;99.90;;;;;;5095574;28;20051;-74
2023/01/19 12:20:52;;;;;;;12.77;1.60;;;6.20;99.90;;;;;;5095154;28;20044;-74
2023/01/19 12:23:23;;;;;;;8.32;1.80;;;6.20;99.90;;;;;;5091317;28;20036;-75
2023/01/19 12:26:05;;;;;;;15.68;3.13;;;6.20;99.90;;;;;;5083599;28;20076;-75
2023/01/19 12:28:35;;;;;;;13.93;1.58;;;6.20;99.90;;;;;;5084143;28;20487;-75
2023/01/19 12:31:02;;;;;;;8.48;2.08;;;6.30;99.90;;;;;;5096669;28;20521;-71
2023/01/19 12:33:36;;;;;;;8.55;1.65;;;6.30;99.90;;;;;;5099652;28;20375;-71
2023/01/19 12:36:27;;;;;;;9.43;1.40;;;6.20;99.90;;;;;;5090529;28;20046;-72
2023/01/19 12:39:02;;;;;;;8.32;1.70;;;6.20;99.90;;;;;;5090233;28;20040;-71
2023/01/19 12:41:35;;;;;;;15.68;2.33;;;6.20;99.90;;;;;;5089164;28;20090;-71
2023/01/19 12:46:54;;;;;;;12.52;2.13;;;6.20;99.90;;;;;;5091236;28;20391;-72
2023/01/19 12:49:23;;;;;;;8.95;1.50;;;6.20;99.90;;;;;;5075752;28;20051;-71
2023/01/19 12:51:51;;;;;;;7.75;1.52;;;6.30;99.90;;;;;;5088661;28;20181;-72
2023/01/19 12:54:32;;;;;;;9.48;1.33;;;6.30;99.90;;;;;;5099726;28;20383;-71
2023/01/19 12:57:02;;;;;;;9.48;1.55;;;6.30;99.90;;;;;;5088408;28;20130;-72
2023/01/19 12:59:29;;;;;;;8.90;1.88;;;6.40;99.90;;;;;;5090555;28;20056;-71
2023/01/19 13:02:17;;;;;;;7.88;1.58;;;6.40;99.90;;;;;;5089499;28;20491;-72
2023/01/19 13:05:03;;;;;;;;;;;6.30;99.90;;;;;;5078662;28;20055;-71
2023/01/19 13:07:28;;;;;;;9.45;1.55;;;6.30;99.90;;;;;;5092700;28;19920;-71